Time;durP1;ratioP1;P1;durP2;ratioP2;P2;SDS_P1;SDS_P2;PMS_P1;PMS_P2;Temp;Humidity;BMP_temperature;BMP_pressure;BME280_temperature;BME280_humidity;BME280_pressure;Samples;Min_cycle;Max_cycle;Signal;HPM_P1;HPM_P2
2022/01/07 00:04:14;;;;;;;;;;;;;;;;;;;;;
2022/01/07 00:09:41;;;;;;;15.10;7.53;;;2.10;99.90;;;;;;12842794;23;20218;-77
2022/01/07 00:14:43;;;;;;;18.83;8.30;;;2.10;99.90;;;;;;12850323;23;20195;-78
2022/01/07 00:19:59;;;;;;;;;;;;;;;;;;;;;
2022/01/07 00:25:12;;;;;;;16.07;7.40;;;2.10;99.90;;;;;;12823942;23;20195;-77
2022/01/07 00:30:33;;;;;;;19.63;8.00;;;2.10;99.90;;;;;;12856604;23;20636;-78
2022/01/07 00:35:37;;;;;;;19.40;8.20;;;2.10;99.90;;;;;;12811256;23;20202;-78
2022/01/07 00:40:48;;;;;;;17.33;8.07;;;2.10;99.90;;;;;;12830552;23;20231;-77
2022/01/07 00:45:49;;;;;;;16.20;8.00;;;2.10;99.90;;;;;;12831682;23;20255;-77
2022/01/07 00:50:52;;;;;;;12.33;7.33;;;2.10;99.90;;;;;;12832692;23;20231;-79
2022/01/07 00:56:13;;;;;;;17.00;8.00;;;2.10;99.90;;;;;;12830468;23;20198;-78
2022/01/07 01:01:17;;;;;;;21.47;8.70;;;2.20;99.90;;;;;;12831160;23;20215;-77
2022/01/07 01:06:28;;;;;;;21.10;8.67;;;2.20;99.90;;;;;;12815088;23;20196;-78
2022/01/07 01:11:34;;;;;;;17.50;9.00;;;2.20;99.90;;;;;;12830250;23;20207;-76
2022/01/07 01:16:36;;;;;;;16.07;8.33;;;2.20;99.90;;;;;;12828182;23;20203;-77
2022/01/07 01:21:37;;;;;;;16.30;8.80;;;2.30;99.90;;;;;;12854894;23;20714;-77
2022/01/07 01:26:40;;;;;;;16.47;7.80;;;2.30;99.90;;;;;;12829332;23;20207;-78
2022/01/07 01:31:41;;;;;;;23.73;9.83;;;2.30;99.90;;;;;;12827904;23;20271;-78
2022/01/07 01:36:48;;;;;;;16.63;8.40;;;2.40;99.90;;;;;;12829986;23;20916;-77
2022/01/07 01:41:57;;;;;;;16.03;9.10;;;2.40;99.90;;;;;;12830172;23;20822;-76
2022/01/07 01:47:02;;;;;;;16.63;9.00;;;2.50;99.90;;;;;;12829521;23;20200;-79
2022/01/07 01:52:25;;;;;;;17.13;8.63;;;2.50;99.90;;;;;;12807247;23;20199;-79
2022/01/07 02:03:10;;;;;;;18.07;9.23;;;2.50;99.90;;;;;;12744859;23;20279;-77
2022/01/07 02:08:20;;;;;;;19.10;9.17;;;2.50;99.90;;;;;;12841401;23;20200;-78
2022/01/07 02:13:21;;;;;;;18.40;9.20;;;2.50;99.90;;;;;;12805267;23;20711;-79
2022/01/07 02:18:22;;;;;;;15.57;7.97;;;2.50;99.90;;;;;;12829493;23;20200;-78
2022/01/07 02:23:26;;;;;;;15.97;8.53;;;2.40;99.90;;;;;;12765518;23;20271;-77
2022/01/07 02:28:34;;;;;;;20.10;9.53;;;2.30;99.90;;;;;;12835552;23;20719;-78
2022/01/07 02:33:40;;;;;;;19.47;9.60;;;2.30;99.90;;;;;;12817446;23;20227;-76
2022/01/07 02:38:53;;;;;;;18.27;8.67;;;2.30;99.90;;;;;;12828099;23;20585;-77
2022/01/07 02:44:11;;;;;;;14.90;8.33;;;2.40;99.90;;;;;;12820144;23;20652;-78
2022/01/07 02:49:16;;;;;;;19.57;9.73;;;2.30;99.90;;;;;;12820936;23;20678;-79
2022/01/07 02:54:17;;;;;;;17.57;9.10;;;2.30;99.90;;;;;;12834134;23;20328;-77
2022/01/07 02:59:23;;;;;;;20.13;9.97;;;2.20;99.90;;;;;;12816066;23;20300;-77
2022/01/07 03:04:26;;;;;;;21.53;10.10;;;2.20;99.90;;;;;;12819511;23;20731;-77
2022/01/07 03:09:35;;;;;;;20.63;8.73;;;2.20;99.90;;;;;;12832515;23;20254;-78
2022/01/07 03:14:49;;;;;;;16.87;9.87;;;2.30;99.90;;;;;;12821296;23;20200;-77
2022/01/07 03:19:50;;;;;;;15.23;9.13;;;2.30;99.90;;;;;;12790890;23;20200;-78
2022/01/07 03:24:57;;;;;;;16.63;8.43;;;2.30;99.90;;;;;;12806124;23;20246;-77
2022/01/07 03:30:18;;;;;;;18.83;9.00;;;2.30;99.90;;;;;;12831642;23;20771;-77
2022/01/07 03:35:27;;;;;;;15.40;8.87;;;2.30;99.90;;;;;;12831835;23;20200;-78
2022/01/07 03:40:34;;;;;;;18.87;8.63;;;2.40;99.90;;;;;;12832714;23;20212;-77
2022/01/07 03:45:45;;;;;;;22.00;8.60;;;2.40;99.90;;;;;;12833561;23;20224;-77
2022/01/07 03:50:52;;;;;;;17.80;8.83;;;2.50;99.90;;;;;;12832042;23;20196;-78
2022/01/07 03:55:53;;;;;;;15.37;8.20;;;2.40;99.90;;;;;;12831382;23;20199;-77
2022/01/07 04:01:18;;;;;;;23.80;9.63;;;2.40;99.90;;;;;;12829741;23;20203;-76
2022/01/07 04:06:43;;;;;;;15.93;9.20;;;2.50;99.90;;;;;;12819301;23;20207;-77
2022/01/07 04:11:46;;;;;;;19.00;9.10;;;2.50;99.90;;;;;;12817403;23;20192;-77
2022/01/07 04:17:03;;;;;;;21.97;9.70;;;2.50;99.90;;;;;;12819835;23;20192;-78
2022/01/07 04:22:13;;;;;;;16.67;9.73;;;2.40;99.90;;;;;;12810618;23;20208;-77
2022/01/07 04:27:25;;;;;;;;;;;;;;;;;;;;;
2022/01/07 04:32:29;;;;;;;19.40;10.90;;;2.40;99.90;;;;;;12833604;23;20200;-76
2022/01/07 04:37:33;;;;;;;19.70;10.73;;;2.40;99.90;;;;;;12829866;23;20203;-77
2022/01/07 04:42:37;;;;;;;17.70;10.30;;;2.40;99.90;;;;;;12829718;23;20526;-78
2022/01/07 04:47:41;;;;;;;21.03;10.63;;;2.30;99.90;;;;;;12826427;23;20207;-76
2022/01/07 04:52:45;;;;;;;22.70;11.00;;;2.30;99.90;;;;;;12816630;23;20202;-77
2022/01/07 04:57:51;;;;;;;16.87;10.07;;;2.30;99.90;;;;;;12813816;23;20524;-77
2022/01/07 05:02:52;;;;;;;16.03;10.70;;;2.20;99.90;;;;;;12829404;23;20262;-77
2022/01/07 05:08:00;;;;;;;21.97;9.97;;;2.20;99.90;;;;;;12828258;23;20207;-76
2022/01/07 05:13:04;;;;;;;15.30;9.37;;;2.20;99.90;;;;;;12828547;23;20206;-77
2022/01/07 05:18:05;;;;;;;15.63;8.40;;;2.20;99.90;;;;;;12827327;23;20594;-79
2022/01/07 05:23:11;;;;;;;17.20;9.47;;;2.20;99.90;;;;;;12855420;23;20251;-76
2022/01/07 05:28:12;;;;;;;16.13;9.13;;;2.10;99.90;;;;;;12827672;23;20520;-76
2022/01/07 05:33:12;;;;;;;17.40;8.83;;;2.10;99.90;;;;;;12827385;23;20204;-76
2022/01/07 05:38:13;;;;;;;14.43;8.80;;;2.10;99.90;;;;;;12852932;23;20200;-76
2022/01/07 05:43:13;;;;;;;14.10;8.53;;;2.10;99.90;;;;;;12827787;23;20643;-76
2022/01/07 05:48:14;;;;;;;11.70;7.40;;;2.10;99.90;;;;;;12827559;23;20260;-77
2022/01/07 05:53:15;;;;;;;16.33;8.27;;;2.10;99.90;;;;;;12826389;23;20199;-77
2022/01/07 05:58:15;;;;;;;12.23;8.20;;;2.10;99.90;;;;;;12827319;23;20204;-77
2022/01/07 06:03:17;;;;;;;18.47;8.93;;;2.10;99.90;;;;;;12829860;23;20262;-76
2022/01/07 06:08:17;;;;;;;16.33;8.70;;;2.10;99.90;;;;;;12828705;23;20240;-76
2022/01/07 06:13:18;;;;;;;17.83;10.67;;;2.10;99.90;;;;;;12829183;23;20203;-77
2022/01/07 06:18:19;;;;;;;17.17;9.80;;;2.20;99.90;;;;;;12831496;23;20227;-77
2022/01/07 06:23:20;;;;;;;19.00;11.30;;;2.20;99.90;;;;;;12859903;23;20584;-76
2022/01/07 06:28:21;;;;;;;18.60;12.63;;;2.20;99.90;;;;;;12860690;23;20339;-76
2022/01/07 06:33:24;;;;;;;24.20;13.07;;;2.20;99.90;;;;;;12858858;23;20259;-76
2022/01/07 06:38:25;;;;;;;18.00;11.03;;;2.30;99.90;;;;;;12859215;23;20199;-77
2022/01/07 06:43:25;;;;;;;16.57;9.77;;;2.20;99.90;;;;;;12832073;23;20264;-77
2022/01/07 06:48:26;;;;;;;16.20;10.33;;;2.20;99.90;;;;;;12831338;23;20259;-77
2022/01/07 06:53:29;;;;;;;15.47;9.33;;;2.20;99.90;;;;;;12832740;23;20251;-77
2022/01/07 06:58:29;;;;;;;15.13;10.50;;;2.30;99.90;;;;;;12832412;23;20234;-77
2022/01/07 07:03:30;;;;;;;15.80;9.07;;;2.30;99.90;;;;;;12832854;23;20210;-77
2022/01/07 07:08:31;;;;;;;12.93;9.30;;;2.30;99.90;;;;;;12832019;23;20223;-76
2022/01/07 07:13:32;;;;;;;15.33;9.70;;;2.40;99.90;;;;;;12832074;23;20210;-77
2022/01/07 07:18:33;;;;;;;16.20;9.70;;;2.40;99.90;;;;;;12832659;23;20279;-77
2022/01/07 07:23:33;;;;;;;13.73;9.60;;;2.50;99.90;;;;;;12858330;23;20192;-79
2022/01/07 07:28:36;;;;;;;19.00;10.10;;;2.60;99.90;;;;;;12857455;23;20238;-77
2022/01/07 07:39:09;;;;;;;19.17;10.07;;;2.60;99.90;;;;;;12809664;23;20291;-76
2022/01/07 07:44:10;;;;;;;14.77;9.93;;;2.70;99.90;;;;;;12828584;23;20200;-76
2022/01/07 07:49:11;;;;;;;17.20;10.30;;;2.60;99.90;;;;;;12828885;23;20593;-77
2022/01/07 07:54:11;;;;;;;17.83;10.00;;;2.50;99.90;;;;;;12830982;23;20223;-76
2022/01/07 07:59:12;;;;;;;21.13;10.57;;;2.50;99.90;;;;;;12856350;23;20208;-76
2022/01/07 08:04:13;;;;;;;18.77;11.53;;;2.50;99.90;;;;;;12829167;23;20200;-77
2022/01/07 08:09:14;;;;;;;21.57;12.10;;;2.50;99.90;;;;;;12829632;23;20200;-77
2022/01/07 08:19:36;;;;;;;18.47;11.90;;;2.40;99.90;;;;;;12855183;23;20207;-76
2022/01/07 08:24:37;;;;;;;20.63;11.03;;;2.30;99.90;;;;;;12828939;23;20707;-76
2022/01/07 08:29:39;;;;;;;24.73;11.90;;;2.40;99.90;;;;;;12855794;23;20242;-78
2022/01/07 08:34:53;;;;;;;17.67;11.43;;;2.30;99.90;;;;;;12856774;23;20254;-77
2022/01/07 08:39:56;;;;;;;16.93;11.63;;;2.30;99.90;;;;;;12827806;23;20208;-77
2022/01/07 08:44:56;;;;;;;19.00;11.73;;;2.30;99.90;;;;;;12829418;23;20196;-77
2022/01/07 08:49:57;;;;;;;21.50;13.23;;;2.30;99.90;;;;;;12829329;23;20295;-76
2022/01/07 08:54:57;;;;;;;19.00;11.63;;;2.30;99.90;;;;;;12855412;23;20699;-77
2022/01/07 08:59:58;;;;;;;16.87;11.67;;;2.40;99.90;;;;;;12854060;23;20597;-76
2022/01/07 09:04:59;;;;;;;22.33;12.00;;;2.40;99.90;;;;;;12829844;23;20456;-77
2022/01/07 09:09:59;;;;;;;19.00;12.63;;;2.40;99.90;;;;;;12854643;23;20212;-77
2022/01/07 09:15:00;;;;;;;21.57;13.27;;;2.40;99.90;;;;;;12855234;23;20222;-76
2022/01/07 09:20:01;;;;;;;17.50;12.70;;;2.40;99.90;;;;;;12830457;23;20215;-77
2022/01/07 09:25:05;;;;;;;22.17;13.47;;;2.40;99.90;;;;;;12857453;23;20267;-78
2022/01/07 09:30:07;;;;;;;22.70;13.43;;;2.40;99.90;;;;;;12829409;23;20211;-77
2022/01/07 09:35:08;;;;;;;22.33;13.57;;;2.40;99.90;;;;;;12828392;23;20164;-76
2022/01/07 09:40:11;;;;;;;24.07;13.83;;;2.50;99.90;;;;;;12828376;23;20187;-77
2022/01/07 09:45:18;;;;;;;19.07;12.73;;;2.50;99.90;;;;;;12829382;23;20184;-77
2022/01/07 09:50:19;;;;;;;28.40;13.30;;;2.50;99.90;;;;;;12852483;23;20148;-77
2022/01/07 09:55:21;;;;;;;24.10;14.97;;;2.30;99.90;;;;;;12854613;23;20152;-77
2022/01/07 10:00:21;;;;;;;19.77;14.50;;;2.20;99.90;;;;;;12855033;23;20191;-77
2022/01/07 10:05:22;;;;;;;24.03;15.73;;;2.10;99.90;;;;;;12856065;23;20570;-77
2022/01/07 10:10:26;;;;;;;33.00;17.50;;;2.10;99.90;;;;;;12826061;23;20206;-77
2022/01/07 10:15:29;;;;;;;35.47;17.87;;;2.10;99.90;;;;;;12830581;23;20196;-76
2022/01/07 10:20:33;;;;;;;31.70;15.97;;;2.20;99.90;;;;;;12854551;23;20212;-77
2022/01/07 10:25:41;;;;;;;29.43;16.93;;;2.20;99.90;;;;;;12854076;23;20279;-76
2022/01/07 10:30:52;;;;;;;26.53;17.23;;;2.20;99.90;;;;;;12854973;23;20196;-77
2022/01/07 10:36:08;;;;;;;23.73;15.43;;;2.30;99.90;;;;;;12855177;23;20196;-77
2022/01/07 10:41:13;;;;;;;31.23;17.00;;;2.40;99.90;;;;;;12854127;23;20208;-77
2022/01/07 10:46:25;;;;;;;27.97;15.10;;;2.50;99.90;;;;;;12853404;23;20199;-77
2022/01/07 10:51:28;;;;;;;29.33;15.87;;;2.60;99.90;;;;;;12828616;23;20204;-76
2022/01/07 10:56:31;;;;;;;23.67;14.47;;;2.60;99.90;;;;;;12828924;23;20647;-77
2022/01/07 11:01:43;;;;;;;29.43;14.40;;;2.50;99.90;;;;;;12827478;23;20214;-77
2022/01/07 11:06:46;;;;;;;25.27;13.50;;;2.40;99.90;;;;;;12857568;23;20207;-76
2022/01/07 11:11:49;;;;;;;20.00;12.90;;;2.50;99.90;;;;;;12857331;23;20267;-77
2022/01/07 11:16:51;;;;;;;23.20;12.63;;;2.40;99.90;;;;;;12859889;23;20210;-77
2022/01/07 11:21:54;;;;;;;22.17;12.17;;;2.50;99.90;;;;;;12856474;23;20208;-77
2022/01/07 11:27:00;;;;;;;27.00;12.47;;;2.50;99.90;;;;;;12830446;23;20411;-77
2022/01/07 11:32:25;;;;;;;24.13;12.57;;;2.60;99.90;;;;;;12859584;23;20243;-78
2022/01/07 11:37:42;;;;;;;17.53;11.47;;;2.70;99.90;;;;;;12856364;23;20207;-78
2022/01/07 11:42:45;;;;;;;16.23;9.93;;;2.80;99.90;;;;;;12856993;23;20198;-76
2022/01/07 11:47:49;;;;;;;24.27;10.90;;;2.80;99.90;;;;;;12857211;23;20223;-76
2022/01/07 11:53:09;;;;;;;16.53;10.33;;;2.80;99.90;;;;;;12830698;23;20200;-77
2022/01/07 11:58:12;;;;;;;18.03;10.87;;;2.80;99.90;;;;;;12827471;23;20215;-77
2022/01/07 12:03:13;;;;;;;16.13;10.83;;;2.70;99.90;;;;;;12829407;23;20615;-77
2022/01/07 12:08:13;;;;;;;21.23;10.67;;;2.80;99.90;;;;;;12828218;23;20239;-76
2022/01/07 12:13:14;;;;;;;20.20;11.37;;;2.90;99.90;;;;;;12856326;23;20274;-77
2022/01/07 12:18:14;;;;;;;20.10;11.77;;;2.90;99.90;;;;;;12829212;23;20287;-78
2022/01/07 12:23:20;;;;;;;17.90;10.53;;;2.80;99.90;;;;;;12828855;23;20200;-77
2022/01/07 12:28:21;;;;;;;21.63;11.73;;;2.90;99.90;;;;;;12829054;23;20223;-76
2022/01/07 12:33:22;;;;;;;19.60;10.17;;;2.90;99.90;;;;;;12828311;23;20200;-76
2022/01/07 12:38:22;;;;;;;16.63;10.63;;;2.90;99.90;;;;;;12855227;23;20208;-77
2022/01/07 12:43:30;;;;;;;17.40;10.90;;;2.90;99.90;;;;;;12856347;23;20275;-79
2022/01/07 12:48:37;;;;;;;19.20;9.97;;;3.00;99.90;;;;;;12856320;23;20210;-77
2022/01/07 12:53:56;;;;;;;15.70;9.03;;;3.00;99.90;;;;;;12855631;23;20286;-77
2022/01/07 12:59:08;;;;;;;12.67;9.07;;;3.10;99.90;;;;;;12828743;23;20211;-77
2022/01/07 13:04:21;;;;;;;12.17;8.03;;;3.30;99.90;;;;;;12840384;23;20267;-76
2022/01/07 13:09:34;;;;;;;14.33;8.17;;;3.30;99.90;;;;;;12829405;23;20203;-76
2022/01/07 13:14:45;;;;;;;11.17;7.77;;;3.30;99.90;;;;;;12855159;23;20254;-77
2022/01/07 13:19:46;;;;;;;12.33;7.63;;;3.30;99.90;;;;;;12831899;23;20208;-77
2022/01/07 13:24:48;;;;;;;11.10;7.87;;;3.30;99.90;;;;;;12829193;23;20238;-77
2022/01/07 13:29:49;;;;;;;12.10;8.07;;;3.30;99.90;;;;;;12855759;23;20204;-76
2022/01/07 13:34:50;;;;;;;13.00;8.37;;;3.30;99.90;;;;;;12856573;23;20199;-76
2022/01/07 13:39:53;;;;;;;11.37;8.30;;;3.30;99.90;;;;;;12829238;23;20662;-76
2022/01/07 13:44:55;;;;;;;10.37;7.90;;;3.30;99.90;;;;;;12828813;23;20196;-77
2022/01/07 13:50:14;;;;;;;13.37;8.13;;;3.40;99.90;;;;;;12828349;23;20587;-77
2022/01/07 13:55:30;;;;;;;11.67;8.10;;;3.50;99.90;;;;;;12828848;23;20651;-77
2022/01/07 14:00:31;;;;;;;10.43;6.87;;;3.50;99.90;;;;;;12829144;23;20550;-76
2022/01/07 14:05:35;;;;;;;10.63;7.20;;;3.60;99.90;;;;;;12855908;23;20196;-76
2022/01/07 14:10:39;;;;;;;9.73;7.33;;;3.70;99.90;;;;;;12857946;23;20203;-76
2022/01/07 14:15:47;;;;;;;10.80;7.83;;;3.70;99.90;;;;;;12828719;23;20279;-77
2022/01/07 14:20:56;;;;;;;10.20;7.80;;;3.60;99.90;;;;;;12852844;23;20199;-77
2022/01/07 14:26:12;;;;;;;9.67;7.83;;;3.50;99.90;;;;;;12853640;23;20929;-77
2022/01/07 14:31:17;;;;;;;10.33;7.37;;;3.40;99.90;;;;;;12828551;23;20203;-78
2022/01/07 14:36:18;;;;;;;9.20;7.80;;;3.40;99.90;;;;;;12829231;23;20584;-76
2022/01/07 14:41:20;;;;;;;9.60;8.07;;;3.30;99.90;;;;;;12830411;23;20207;-76
2022/01/07 14:46:21;;;;;;;13.60;7.97;;;3.20;99.90;;;;;;12834331;23;20203;-77
2022/01/07 14:51:25;;;;;;;10.97;8.30;;;3.30;99.90;;;;;;12831950;23;20525;-77
2022/01/07 14:56:28;;;;;;;11.10;7.73;;;3.30;99.90;;;;;;12831907;23;20207;-76
2022/01/07 15:01:29;;;;;;;10.47;7.27;;;3.30;99.90;;;;;;12858807;23;20205;-77
2022/01/07 15:06:30;;;;;;;11.87;8.50;;;3.30;99.90;;;;;;12832922;23;20203;-77
2022/01/07 15:11:30;;;;;;;10.47;7.37;;;3.30;99.90;;;;;;12829956;23;20204;-77
2022/01/07 15:16:40;;;;;;;10.10;7.33;;;3.30;99.90;;;;;;12858300;23;20200;-75
2022/01/07 15:21:42;;;;;;;11.40;8.43;;;3.30;99.90;;;;;;12830485;23;20299;-77
2022/01/07 15:26:45;;;;;;;12.87;7.67;;;3.30;99.90;;;;;;12859968;23;20204;-77
2022/01/07 15:31:46;;;;;;;11.47;7.83;;;3.30;99.90;;;;;;12832739;23;20215;-76
2022/01/07 15:36:46;;;;;;;10.70;7.97;;;3.40;99.90;;;;;;12830919;23;20254;-76
2022/01/07 15:41:50;;;;;;;11.17;7.77;;;3.40;99.90;;;;;;12857137;23;20216;-77
2022/01/07 15:46:51;;;;;;;8.00;7.00;;;3.40;99.90;;;;;;12830107;23;20204;-76
2022/01/07 15:51:52;;;;;;;12.27;7.63;;;3.40;99.90;;;;;;12830063;23;20255;-77
2022/01/07 15:56:53;;;;;;;10.73;7.80;;;3.30;99.90;;;;;;12830446;23;20207;-77
2022/01/07 16:01:53;;;;;;;10.90;7.90;;;3.30;99.90;;;;;;12828853;23;20208;-77
2022/01/07 16:06:57;;;;;;;11.00;7.83;;;3.30;99.90;;;;;;12857794;23;20259;-80
2022/01/07 16:11:58;;;;;;;10.77;7.47;;;3.30;99.90;;;;;;12856723;23;20601;-77
2022/01/07 16:17:00;;;;;;;11.50;7.60;;;3.30;99.90;;;;;;12832232;23;20204;-77
2022/01/07 16:22:00;;;;;;;9.17;6.87;;;3.30;99.90;;;;;;12831498;23;20233;-76
2022/01/07 16:27:01;;;;;;;9.83;7.47;;;3.30;99.90;;;;;;12829968;23;20238;-76
2022/01/07 16:32:02;;;;;;;9.20;7.93;;;3.20;99.90;;;;;;12828878;23;20578;-76
2022/01/07 16:37:02;;;;;;;12.43;8.40;;;3.20;99.90;;;;;;12827951;23;20255;-76
2022/01/07 16:42:04;;;;;;;9.73;7.03;;;3.20;99.90;;;;;;12830675;23;20289;-77
2022/01/07 16:47:05;;;;;;;11.93;8.17;;;3.20;99.90;;;;;;12832254;23;20255;-77
2022/01/07 16:52:09;;;;;;;13.73;8.03;;;3.20;99.90;;;;;;12830252;23;20583;-77
2022/01/07 16:57:09;;;;;;;12.57;8.57;;;3.20;99.90;;;;;;12828574;23;20207;-76
2022/01/07 17:02:10;;;;;;;10.47;7.80;;;3.20;99.90;;;;;;12857630;23;20226;-76
2022/01/07 17:07:11;;;;;;;11.20;8.10;;;3.20;99.90;;;;;;12828035;23;20851;-77
2022/01/07 17:12:11;;;;;;;13.03;7.87;;;3.30;99.90;;;;;;12828630;23;20208;-77
2022/01/07 17:17:13;;;;;;;9.20;7.53;;;3.30;99.90;;;;;;12828666;23;20199;-77
2022/01/07 17:22:13;;;;;;;9.87;8.00;;;3.30;99.90;;;;;;12829455;23;20207;-78
2022/01/07 17:27:15;;;;;;;11.70;7.30;;;3.40;99.90;;;;;;12829539;23;20707;-76
2022/01/07 17:32:17;;;;;;;13.80;7.93;;;3.40;99.90;;;;;;12832028;23;20196;-78
2022/01/07 17:37:22;;;;;;;11.67;6.90;;;3.40;99.90;;;;;;12804559;23;20660;-77
2022/01/07 17:42:23;;;;;;;12.70;7.83;;;3.40;99.90;;;;;;12855372;23;20751;-76
2022/01/07 17:47:24;;;;;;;10.97;6.70;;;3.30;99.90;;;;;;12832337;23;20211;-77
2022/01/07 17:52:24;;;;;;;8.90;6.40;;;3.40;99.90;;;;;;12831895;23;20211;-78
2022/01/07 17:57:27;;;;;;;7.17;5.97;;;3.40;99.90;;;;;;12827758;23;20204;-76
2022/01/07 18:02:28;;;;;;;9.47;6.13;;;3.50;99.90;;;;;;12829595;23;20216;-76
2022/01/07 18:07:28;;;;;;;9.67;6.03;;;3.50;99.90;;;;;;12856448;23;20192;-77
2022/01/07 18:12:29;;;;;;;7.50;5.27;;;3.50;99.90;;;;;;12831065;23;20204;-76
2022/01/07 18:17:30;;;;;;;7.63;5.30;;;3.50;99.90;;;;;;12857728;23;20199;-76
2022/01/07 18:22:37;;;;;;;6.37;5.30;;;3.50;99.90;;;;;;12834409;23;20294;-77
2022/01/07 18:27:38;;;;;;;7.97;5.00;;;3.50;99.90;;;;;;12834121;23;20599;-76
2022/01/07 18:32:39;;;;;;;8.93;5.47;;;3.50;99.90;;;;;;12831215;23;20200;-77
2022/01/07 18:37:39;;;;;;;8.20;5.20;;;3.50;99.90;;;;;;12832512;23;20286;-76
2022/01/07 18:42:41;;;;;;;6.20;4.93;;;3.50;99.90;;;;;;12833469;23;20286;-78
2022/01/07 18:47:42;;;;;;;7.00;5.03;;;3.60;99.90;;;;;;12832119;23;20668;-77
2022/01/07 18:52:42;;;;;;;7.87;5.13;;;3.60;99.90;;;;;;12832877;23;20243;-77
2022/01/07 18:57:43;;;;;;;7.77;4.37;;;3.60;99.90;;;;;;12831742;23;20218;-77
2022/01/07 19:02:44;;;;;;;6.03;4.30;;;3.60;99.90;;;;;;12831575;23;20871;-78
2022/01/07 19:07:45;;;;;;;7.23;4.57;;;3.60;99.90;;;;;;12833016;23;20208;-76
2022/01/07 19:12:45;;;;;;;6.53;4.40;;;3.60;99.90;;;;;;12832000;23;20209;-76
2022/01/07 19:17:46;;;;;;;6.40;4.17;;;3.50;99.90;;;;;;12831672;23;20199;-77
2022/01/07 19:22:47;;;;;;;6.73;4.57;;;3.50;99.90;;;;;;12829050;23;20343;-76
2022/01/07 19:27:51;;;;;;;5.60;3.90;;;3.40;99.90;;;;;;12826432;23;20204;-76
2022/01/07 19:32:51;;;;;;;8.33;4.70;;;3.50;99.90;;;;;;12827528;23;20267;-77
2022/01/07 19:37:52;;;;;;;8.17;4.50;;;3.50;99.90;;;;;;12827218;23;20204;-77
2022/01/07 19:42:53;;;;;;;5.43;3.57;;;3.50;99.90;;;;;;12826892;23;20220;-76
2022/01/07 19:47:53;;;;;;;6.03;3.40;;;3.50;99.90;;;;;;12825605;23;20327;-77
2022/01/07 19:52:54;;;;;;;4.47;3.83;;;3.30;99.90;;;;;;12856127;23;20224;-76
2022/01/07 19:57:55;;;;;;;5.93;4.73;;;3.10;99.90;;;;;;12858583;23;20550;-76
2022/01/07 20:02:57;;;;;;;4.60;3.33;;;3.10;99.90;;;;;;12832843;23;20227;-76
2022/01/07 20:07:57;;;;;;;5.13;4.00;;;3.20;99.90;;;;;;12831719;23;20196;-76
2022/01/07 20:12:58;;;;;;;5.77;3.80;;;3.20;99.90;;;;;;12859867;23;20275;-77
2022/01/07 20:17:59;;;;;;;5.17;3.73;;;3.30;99.90;;;;;;12831350;23;20196;-78
2022/01/07 20:22:59;;;;;;;5.60;4.20;;;3.30;99.90;;;;;;12832813;23;20539;-77
2022/01/07 20:28:00;;;;;;;5.40;4.30;;;3.30;99.90;;;;;;12830793;23;20227;-77
2022/01/07 20:33:01;;;;;;;5.33;4.07;;;3.20;99.90;;;;;;12858488;23;20640;-76
2022/01/07 20:38:03;;;;;;;5.30;3.97;;;3.20;99.90;;;;;;12837231;23;20920;-79
2022/01/07 20:43:04;;;;;;;5.50;4.60;;;3.30;99.90;;;;;;12832670;23;20222;-77
2022/01/07 20:48:08;;;;;;;5.50;3.83;;;3.30;99.90;;;;;;12830629;23;20199;-77
2022/01/07 20:53:08;;;;;;;5.70;4.73;;;3.30;99.90;;;;;;12831455;23;20208;-77
2022/01/07 20:58:09;;;;;;;7.00;4.60;;;3.30;99.90;;;;;;12830230;23;20200;-76
2022/01/07 21:03:10;;;;;;;6.80;5.07;;;3.30;99.90;;;;;;12831906;23;20259;-76
2022/01/07 21:08:10;;;;;;;6.27;3.97;;;3.30;99.90;;;;;;12856828;23;20200;-78
2022/01/07 21:13:11;;;;;;;5.70;4.30;;;3.30;99.90;;;;;;12835113;23;20192;-78
2022/01/07 21:18:12;;;;;;;6.87;5.30;;;3.30;99.90;;;;;;12858145;23;20271;-77
2022/01/07 21:23:12;;;;;;;7.60;5.47;;;3.30;99.90;;;;;;12829123;23;20255;-76
2022/01/07 21:28:13;;;;;;;6.43;4.43;;;3.30;99.90;;;;;;12835050;23;20196;-77
2022/01/07 21:33:17;;;;;;;7.50;5.40;;;3.30;99.90;;;;;;12863137;23;20260;-78
2022/01/07 21:38:18;;;;;;;7.43;5.73;;;3.30;99.90;;;;;;12853821;23;20207;-77
2022/01/07 21:43:20;;;;;;;8.93;6.83;;;3.40;99.90;;;;;;12856847;23;20548;-77
2022/01/07 21:48:20;;;;;;;9.40;6.70;;;3.40;99.90;;;;;;12829107;23;20204;-77
2022/01/07 21:53:21;;;;;;;6.97;5.67;;;3.40;99.90;;;;;;12828243;23;20204;-77
2022/01/07 21:58:23;;;;;;;10.30;7.33;;;3.30;99.90;;;;;;12827155;23;20294;-76
2022/01/07 22:03:27;;;;;;;10.50;6.03;;;3.30;99.90;;;;;;12829135;23;20200;-77
2022/01/07 22:08:27;;;;;;;11.60;7.07;;;3.30;99.90;;;;;;12854637;23;20196;-77
2022/01/07 22:19:37;;;;;;;9.57;6.60;;;3.40;99.90;;;;;;12821994;23;20200;-78
2022/01/07 22:24:39;;;;;;;8.60;6.57;;;3.40;99.90;;;;;;12804282;23;20660;-77
2022/01/07 22:35:39;;;;;;;10.17;6.70;;;3.50;99.90;;;;;;12745320;23;20191;-78
2022/01/07 22:40:46;;;;;;;6.47;5.70;;;3.60;99.90;;;;;;12829899;23;20202;-77
2022/01/07 22:45:55;;;;;;;10.73;6.07;;;3.60;99.90;;;;;;12816113;23;20216;-77
2022/01/07 22:51:04;;;;;;;8.07;5.50;;;3.60;99.90;;;;;;12804669;23;20280;-77
2022/01/07 22:56:19;;;;;;;;;;;;;;;;;;;;;
2022/01/07 23:01:30;;;;;;;9.17;5.80;;;3.70;99.90;;;;;;12860014;23;20222;-76
2022/01/07 23:06:34;;;;;;;6.97;5.47;;;3.70;99.90;;;;;;12824587;23;20203;-77
2022/01/07 23:11:54;;;;;;;6.03;5.43;;;3.70;99.90;;;;;;12834622;23;20204;-77
2022/01/07 23:17:06;;;;;;;7.90;5.80;;;3.70;99.90;;;;;;12832277;23;20542;-77
2022/01/07 23:22:09;;;;;;;7.60;5.03;;;3.70;99.90;;;;;;12817918;23;20204;-77
2022/01/07 23:27:13;;;;;;;7.70;5.40;;;3.70;99.90;;;;;;12863271;23;20226;-77
2022/01/07 23:37:47;;;;;;;10.60;5.73;;;3.50;99.90;;;;;;12860004;23;20690;-77
2022/01/07 23:48:28;;;;;;;7.47;5.50;;;3.40;99.90;;;;;;12850939;23;20230;-78
2022/01/07 23:53:36;;;;;;;7.50;5.03;;;3.40;99.90;;;;;;12823240;23;20227;-79
2022/01/07 23:58:54;;;;;;;7.93;5.80;;;3.40;99.90;;;;;;12835361;23;20205;-78
